sensor_id;sensor_type;location;lat;lon;timestamp;P1;durP1;ratioP1;P2;durP2;ratioP2
10851;SDS011;5479;52.046;6.314;2023-09-18T00:01:56;24.35;;;22.05;;
10851;SDS011;5479;52.046;6.314;2023-09-18T00:04:24;24.55;;;22.25;;
10851;SDS011;5479;52.046;6.314;2023-09-18T00:06:52;27.05;;;24.45;;
10851;SDS011;5479;52.046;6.314;2023-09-18T00:09:23;24.50;;;21.90;;
10851;SDS011;5479;52.046;6.314;2023-09-18T00:11:50;24.13;;;21.65;;
10851;SDS011;5479;52.046;6.314;2023-09-18T00:14:19;26.77;;;24.23;;
10851;SDS011;5479;52.046;6.314;2023-09-18T00:16:47;28.63;;;25.83;;
10851;SDS011;5479;52.046;6.314;2023-09-18T00:19:15;28.05;;;25.45;;
10851;SDS011;5479;52.046;6.314;2023-09-18T00:21:43;26.83;;;24.23;;
10851;SDS011;5479;52.046;6.314;2023-09-18T00:24:11;27.70;;;25.02;;
10851;SDS011;5479;52.046;6.314;2023-09-18T00:26:41;27.38;;;24.70;;
10851;SDS011;5479;52.046;6.314;2023-09-18T00:29:09;28.23;;;25.40;;
10851;SDS011;5479;52.046;6.314;2023-09-18T00:31:37;28.02;;;25.23;;
10851;SDS011;5479;52.046;6.314;2023-09-18T00:34:04;29.13;;;26.23;;
10851;SDS011;5479;52.046;6.314;2023-09-18T00:36:32;26.30;;;23.63;;
10851;SDS011;5479;52.046;6.314;2023-09-18T00:39:00;28.10;;;25.30;;
10851;SDS011;5479;52.046;6.314;2023-09-18T00:41:30;29.08;;;26.17;;
10851;SDS011;5479;52.046;6.314;2023-09-18T00:43:59;28.92;;;26.13;;
10851;SDS011;5479;52.046;6.314;2023-09-18T00:46:27;26.98;;;24.35;;
10851;SDS011;5479;52.046;6.314;2023-09-18T00:48:55;28.17;;;25.38;;
10851;SDS011;5479;52.046;6.314;2023-09-18T00:51:23;27.60;;;24.95;;
10851;SDS011;5479;52.046;6.314;2023-09-18T00:53:51;26.58;;;23.98;;
10851;SDS011;5479;52.046;6.314;2023-09-18T00:56:19;27.15;;;24.38;;
10851;SDS011;5479;52.046;6.314;2023-09-18T00:58:47;25.90;;;23.40;;
10851;SDS011;5479;52.046;6.314;2023-09-18T01:01:16;26.98;;;24.27;;
10851;SDS011;5479;52.046;6.314;2023-09-18T01:03:49;25.98;;;23.38;;
10851;SDS011;5479;52.046;6.314;2023-09-18T01:06:19;24.55;;;22.15;;
10851;SDS011;5479;52.046;6.314;2023-09-18T01:08:47;26.15;;;23.50;;
10851;SDS011;5479;52.046;6.314;2023-09-18T01:11:21;26.05;;;23.30;;
10851;SDS011;5479;52.046;6.314;2023-09-18T01:14:03;26.90;;;24.10;;
10851;SDS011;5479;52.046;6.314;2023-09-18T01:16:41;26.92;;;24.23;;
10851;SDS011;5479;52.046;6.314;2023-09-18T01:19:16;24.80;;;22.23;;
10851;SDS011;5479;52.046;6.314;2023-09-18T01:21:44;24.45;;;21.90;;
10851;SDS011;5479;52.046;6.314;2023-09-18T01:24:14;24.25;;;21.80;;
10851;SDS011;5479;52.046;6.314;2023-09-18T01:26:42;24.67;;;22.27;;
10851;SDS011;5479;52.046;6.314;2023-09-18T01:29:09;25.15;;;22.85;;
10851;SDS011;5479;52.046;6.314;2023-09-18T01:31:37;24.55;;;22.13;;
10851;SDS011;5479;52.046;6.314;2023-09-18T01:34:05;25.20;;;22.70;;
10851;SDS011;5479;52.046;6.314;2023-09-18T01:36:34;24.60;;;22.02;;
10851;SDS011;5479;52.046;6.314;2023-09-18T01:39:02;25.02;;;22.63;;
10851;SDS011;5479;52.046;6.314;2023-09-18T01:41:32;24.10;;;21.65;;
10851;SDS011;5479;52.046;6.314;2023-09-18T01:44:01;25.58;;;22.92;;
10851;SDS011;5479;52.046;6.314;2023-09-18T01:46:31;24.45;;;21.95;;
10851;SDS011;5479;52.046;6.314;2023-09-18T01:49:02;24.58;;;22.08;;
10851;SDS011;5479;52.046;6.314;2023-09-18T01:51:30;24.60;;;22.20;;
10851;SDS011;5479;52.046;6.314;2023-09-18T01:53:58;25.02;;;22.33;;
10851;SDS011;5479;52.046;6.314;2023-09-18T01:56:26;24.40;;;21.98;;
10851;SDS011;5479;52.046;6.314;2023-09-18T01:58:55;23.52;;;21.02;;
10851;SDS011;5479;52.046;6.314;2023-09-18T02:01:23;23.38;;;20.98;;
10851;SDS011;5479;52.046;6.314;2023-09-18T02:03:51;23.60;;;21.20;;
10851;SDS011;5479;52.046;6.314;2023-09-18T02:06:19;23.52;;;21.17;;
10851;SDS011;5479;52.046;6.314;2023-09-18T02:08:47;24.67;;;22.08;;
10851;SDS011;5479;52.046;6.314;2023-09-18T02:11:15;24.45;;;21.90;;
10851;SDS011;5479;52.046;6.314;2023-09-18T02:13:43;24.80;;;22.40;;
10851;SDS011;5479;52.046;6.314;2023-09-18T02:16:12;25.02;;;22.42;;
10851;SDS011;5479;52.046;6.314;2023-09-18T02:18:40;25.55;;;22.85;;
10851;SDS011;5479;52.046;6.314;2023-09-18T02:21:09;25.23;;;22.42;;
10851;SDS011;5479;52.046;6.314;2023-09-18T02:23:37;23.52;;;21.08;;
10851;SDS011;5479;52.046;6.314;2023-09-18T02:26:06;24.70;;;22.30;;
10851;SDS011;5479;52.046;6.314;2023-09-18T02:28:34;24.80;;;22.35;;
10851;SDS011;5479;52.046;6.314;2023-09-18T02:31:03;24.00;;;21.15;;
10851;SDS011;5479;52.046;6.314;2023-09-18T02:33:32;23.13;;;20.92;;
10851;SDS011;5479;52.046;6.314;2023-09-18T02:36:00;23.00;;;20.55;;
10851;SDS011;5479;52.046;6.314;2023-09-18T02:38:28;25.17;;;20.50;;
10851;SDS011;5479;52.046;6.314;2023-09-18T02:40:56;21.30;;;19.02;;
10851;SDS011;5479;52.046;6.314;2023-09-18T02:43:24;20.92;;;18.73;;
10851;SDS011;5479;52.046;6.314;2023-09-18T02:45:53;22.67;;;18.05;;
10851;SDS011;5479;52.046;6.314;2023-09-18T02:48:21;21.13;;;18.27;;
10851;SDS011;5479;52.046;6.314;2023-09-18T02:50:50;19.40;;;17.40;;
10851;SDS011;5479;52.046;6.314;2023-09-18T02:53:18;18.77;;;16.83;;
10851;SDS011;5479;52.046;6.314;2023-09-18T02:55:48;19.33;;;16.90;;
10851;SDS011;5479;52.046;6.314;2023-09-18T02:58:18;20.58;;;15.65;;
10851;SDS011;5479;52.046;6.314;2023-09-18T03:00:47;19.35;;;15.65;;
10851;SDS011;5479;52.046;6.314;2023-09-18T03:03:16;17.65;;;15.63;;
10851;SDS011;5479;52.046;6.314;2023-09-18T03:05:44;17.52;;;14.93;;
10851;SDS011;5479;52.046;6.314;2023-09-18T03:08:14;16.50;;;14.38;;
10851;SDS011;5479;52.046;6.314;2023-09-18T03:10:42;18.10;;;14.68;;
10851;SDS011;5479;52.046;6.314;2023-09-18T03:13:12;15.60;;;13.95;;
10851;SDS011;5479;52.046;6.314;2023-09-18T03:16:02;15.88;;;13.75;;
10851;SDS011;5479;52.046;6.314;2023-09-18T03:18:30;16.15;;;13.63;;
10851;SDS011;5479;52.046;6.314;2023-09-18T03:20:58;15.85;;;13.48;;
10851;SDS011;5479;52.046;6.314;2023-09-18T03:23:27;16.48;;;12.85;;
10851;SDS011;5479;52.046;6.314;2023-09-18T03:25:57;14.43;;;12.75;;
10851;SDS011;5479;52.046;6.314;2023-09-18T03:28:26;17.10;;;13.13;;
10851;SDS011;5479;52.046;6.314;2023-09-18T03:30:55;15.73;;;13.20;;
10851;SDS011;5479;52.046;6.314;2023-09-18T03:33:24;14.13;;;12.63;;
10851;SDS011;5479;52.046;6.314;2023-09-18T03:35:53;16.63;;;12.98;;
10851;SDS011;5479;52.046;6.314;2023-09-18T03:38:24;15.13;;;12.73;;
10851;SDS011;5479;52.046;6.314;2023-09-18T03:40:53;15.27;;;12.10;;
10851;SDS011;5479;52.046;6.314;2023-09-18T03:43:22;13.38;;;11.93;;
10851;SDS011;5479;52.046;6.314;2023-09-18T03:45:50;18.50;;;12.57;;
10851;SDS011;5479;52.046;6.314;2023-09-18T03:48:19;13.52;;;11.93;;
10851;SDS011;5479;52.046;6.314;2023-09-18T03:50:48;15.35;;;12.05;;
10851;SDS011;5479;52.046;6.314;2023-09-18T03:53:16;15.77;;;12.43;;
10851;SDS011;5479;52.046;6.314;2023-09-18T03:55:44;16.92;;;12.48;;
10851;SDS011;5479;52.046;6.314;2023-09-18T03:58:13;15.98;;;13.00;;
10851;SDS011;5479;52.046;6.314;2023-09-18T04:00:42;17.42;;;13.43;;
10851;SDS011;5479;52.046;6.314;2023-09-18T04:03:10;14.05;;;12.40;;
10851;SDS011;5479;52.046;6.314;2023-09-18T04:05:39;14.05;;;12.48;;
10851;SDS011;5479;52.046;6.314;2023-09-18T04:08:07;15.18;;;12.60;;
10851;SDS011;5479;52.046;6.314;2023-09-18T04:10:35;17.13;;;13.02;;
10851;SDS011;5479;52.046;6.314;2023-09-18T04:13:03;18.65;;;12.07;;
10851;SDS011;5479;52.046;6.314;2023-09-18T04:15:32;14.57;;;12.05;;
10851;SDS011;5479;52.046;6.314;2023-09-18T04:18:04;15.85;;;11.50;;
10851;SDS011;5479;52.046;6.314;2023-09-18T04:20:32;15.70;;;11.35;;
10851;SDS011;5479;52.046;6.314;2023-09-18T04:23:18;14.68;;;10.15;;
10851;SDS011;5479;52.046;6.314;2023-09-18T04:25:49;14.40;;;10.25;;
10851;SDS011;5479;52.046;6.314;2023-09-18T04:28:18;13.23;;;9.60;;
10851;SDS011;5479;52.046;6.314;2023-09-18T04:30:50;10.38;;;8.57;;
10851;SDS011;5479;52.046;6.314;2023-09-18T04:33:19;14.68;;;10.15;;
10851;SDS011;5479;52.046;6.314;2023-09-18T04:35:47;13.23;;;9.25;;
10851;SDS011;5479;52.046;6.314;2023-09-18T04:38:15;12.07;;;9.45;;
10851;SDS011;5479;52.046;6.314;2023-09-18T04:40:45;13.57;;;9.43;;
10851;SDS011;5479;52.046;6.314;2023-09-18T04:43:14;13.35;;;8.68;;
10851;SDS011;5479;52.046;6.314;2023-09-18T04:45:42;13.88;;;9.95;;
10851;SDS011;5479;52.046;6.314;2023-09-18T04:48:11;15.73;;;10.05;;
10851;SDS011;5479;52.046;6.314;2023-09-18T04:50:39;14.50;;;10.23;;
10851;SDS011;5479;52.046;6.314;2023-09-18T04:53:08;16.00;;;9.80;;
10851;SDS011;5479;52.046;6.314;2023-09-18T04:55:37;13.63;;;10.27;;
10851;SDS011;5479;52.046;6.314;2023-09-18T04:58:05;15.45;;;9.60;;
10851;SDS011;5479;52.046;6.314;2023-09-18T05:00:34;13.27;;;9.07;;
10851;SDS011;5479;52.046;6.314;2023-09-18T05:03:02;15.57;;;9.30;;
10851;SDS011;5479;52.046;6.314;2023-09-18T05:05:31;11.30;;;8.45;;
10851;SDS011;5479;52.046;6.314;2023-09-18T05:08:00;11.77;;;9.25;;
10851;SDS011;5479;52.046;6.314;2023-09-18T05:10:29;13.15;;;9.40;;
10851;SDS011;5479;52.046;6.314;2023-09-18T05:12:57;12.30;;;8.15;;
10851;SDS011;5479;52.046;6.314;2023-09-18T05:15:26;12.38;;;8.50;;
10851;SDS011;5479;52.046;6.314;2023-09-18T05:17:56;12.10;;;8.38;;
10851;SDS011;5479;52.046;6.314;2023-09-18T05:20:24;10.63;;;8.07;;
10851;SDS011;5479;52.046;6.314;2023-09-18T05:22:58;16.58;;;8.98;;
10851;SDS011;5479;52.046;6.314;2023-09-18T05:25:28;12.82;;;8.10;;
10851;SDS011;5479;52.046;6.314;2023-09-18T05:27:59;13.07;;;8.07;;
10851;SDS011;5479;52.046;6.314;2023-09-18T05:30:30;12.48;;;7.60;;
10851;SDS011;5479;52.046;6.314;2023-09-18T05:33:00;11.80;;;8.15;;
10851;SDS011;5479;52.046;6.314;2023-09-18T05:35:32;11.55;;;7.97;;
10851;SDS011;5479;52.046;6.314;2023-09-18T05:38:02;12.35;;;7.55;;
10851;SDS011;5479;52.046;6.314;2023-09-18T05:40:30;13.80;;;8.30;;
10851;SDS011;5479;52.046;6.314;2023-09-18T05:42:58;12.60;;;8.15;;
10851;SDS011;5479;52.046;6.314;2023-09-18T05:45:28;13.80;;;8.02;;
10851;SDS011;5479;52.046;6.314;2023-09-18T05:47:57;12.68;;;7.90;;
10851;SDS011;5479;52.046;6.314;2023-09-18T05:50:30;12.90;;;8.98;;
10851;SDS011;5479;52.046;6.314;2023-09-18T05:53:06;14.93;;;8.65;;
10851;SDS011;5479;52.046;6.314;2023-09-18T05:55:34;14.65;;;9.77;;
10851;SDS011;5479;52.046;6.314;2023-09-18T05:58:02;12.50;;;9.25;;
10851;SDS011;5479;52.046;6.314;2023-09-18T06:00:33;16.33;;;9.55;;
10851;SDS011;5479;52.046;6.314;2023-09-18T06:03:01;13.18;;;9.38;;
10851;SDS011;5479;52.046;6.314;2023-09-18T06:05:29;11.18;;;9.30;;
10851;SDS011;5479;52.046;6.314;2023-09-18T06:08:00;12.88;;;9.70;;
10851;SDS011;5479;52.046;6.314;2023-09-18T06:10:29;18.38;;;10.02;;
10851;SDS011;5479;52.046;6.314;2023-09-18T06:12:57;13.20;;;9.38;;
10851;SDS011;5479;52.046;6.314;2023-09-18T06:15:30;12.73;;;10.52;;
10851;SDS011;5479;52.046;6.314;2023-09-18T06:17:58;14.02;;;10.52;;
10851;SDS011;5479;52.046;6.314;2023-09-18T06:20:26;16.10;;;11.18;;
10851;SDS011;5479;52.046;6.314;2023-09-18T06:22:54;12.60;;;10.90;;
10851;SDS011;5479;52.046;6.314;2023-09-18T06:25:22;13.88;;;11.23;;
10851;SDS011;5479;52.046;6.314;2023-09-18T06:27:52;18.02;;;11.23;;
10851;SDS011;5479;52.046;6.314;2023-09-18T06:30:20;14.50;;;11.90;;
10851;SDS011;5479;52.046;6.314;2023-09-18T06:32:49;14.13;;;12.18;;
10851;SDS011;5479;52.046;6.314;2023-09-18T06:35:17;14.32;;;11.25;;
10851;SDS011;5479;52.046;6.314;2023-09-18T06:37:44;15.18;;;11.02;;
10851;SDS011;5479;52.046;6.314;2023-09-18T06:40:12;17.45;;;11.23;;
10851;SDS011;5479;52.046;6.314;2023-09-18T06:42:42;15.85;;;10.20;;
10851;SDS011;5479;52.046;6.314;2023-09-18T06:45:12;13.77;;;10.13;;
10851;SDS011;5479;52.046;6.314;2023-09-18T06:47:41;14.45;;;10.13;;
10851;SDS011;5479;52.046;6.314;2023-09-18T06:50:09;13.00;;;9.27;;
10851;SDS011;5479;52.046;6.314;2023-09-18T06:52:38;14.13;;;8.93;;
10851;SDS011;5479;52.046;6.314;2023-09-18T06:55:07;11.95;;;8.65;;
10851;SDS011;5479;52.046;6.314;2023-09-18T06:57:35;10.63;;;8.80;;
10851;SDS011;5479;52.046;6.314;2023-09-18T07:00:04;11.45;;;8.20;;
10851;SDS011;5479;52.046;6.314;2023-09-18T07:02:34;11.63;;;7.90;;
10851;SDS011;5479;52.046;6.314;2023-09-18T07:05:02;10.05;;;7.55;;
10851;SDS011;5479;52.046;6.314;2023-09-18T07:07:31;11.20;;;7.68;;
10851;SDS011;5479;52.046;6.314;2023-09-18T07:09:59;12.20;;;6.90;;
10851;SDS011;5479;52.046;6.314;2023-09-18T07:12:27;10.77;;;7.82;;
10851;SDS011;5479;52.046;6.314;2023-09-18T07:14:55;9.00;;;6.72;;
10851;SDS011;5479;52.046;6.314;2023-09-18T07:17:23;10.50;;;6.50;;
10851;SDS011;5479;52.046;6.314;2023-09-18T07:19:54;9.60;;;6.47;;
10851;SDS011;5479;52.046;6.314;2023-09-18T07:22:22;12.38;;;6.78;;
10851;SDS011;5479;52.046;6.314;2023-09-18T07:24:50;9.90;;;6.45;;
10851;SDS011;5479;52.046;6.314;2023-09-18T07:27:18;12.90;;;6.30;;
10851;SDS011;5479;52.046;6.314;2023-09-18T07:29:46;10.35;;;5.80;;
10851;SDS011;5479;52.046;6.314;2023-09-18T07:32:15;9.45;;;6.15;;
10851;SDS011;5479;52.046;6.314;2023-09-18T07:34:43;10.93;;;6.32;;
10851;SDS011;5479;52.046;6.314;2023-09-18T07:37:14;8.45;;;5.68;;
10851;SDS011;5479;52.046;6.314;2023-09-18T07:39:47;9.40;;;5.80;;
10851;SDS011;5479;52.046;6.314;2023-09-18T07:42:15;10.50;;;5.72;;
10851;SDS011;5479;52.046;6.314;2023-09-18T07:44:43;8.00;;;5.05;;
10851;SDS011;5479;52.046;6.314;2023-09-18T07:47:12;8.63;;;5.40;;
10851;SDS011;5479;52.046;6.314;2023-09-18T07:49:40;7.78;;;4.85;;
10851;SDS011;5479;52.046;6.314;2023-09-18T07:52:08;10.35;;;4.88;;
10851;SDS011;5479;52.046;6.314;2023-09-18T07:54:37;9.23;;;5.28;;
10851;SDS011;5479;52.046;6.314;2023-09-18T07:57:05;7.60;;;4.10;;
10851;SDS011;5479;52.046;6.314;2023-09-18T07:59:35;8.80;;;5.05;;
10851;SDS011;5479;52.046;6.314;2023-09-18T08:02:06;8.27;;;5.20;;
10851;SDS011;5479;52.046;6.314;2023-09-18T08:04:35;9.00;;;4.38;;
10851;SDS011;5479;52.046;6.314;2023-09-18T08:07:03;9.20;;;4.10;;
10851;SDS011;5479;52.046;6.314;2023-09-18T08:09:32;8.80;;;4.57;;
10851;SDS011;5479;52.046;6.314;2023-09-18T08:12:04;6.65;;;4.18;;
10851;SDS011;5479;52.046;6.314;2023-09-18T08:14:33;6.05;;;3.88;;
10851;SDS011;5479;52.046;6.314;2023-09-18T08:17:02;8.23;;;4.00;;
10851;SDS011;5479;52.046;6.314;2023-09-18T08:19:31;8.48;;;3.85;;
10851;SDS011;5479;52.046;6.314;2023-09-18T08:22:00;9.98;;;4.07;;
10851;SDS011;5479;52.046;6.314;2023-09-18T08:24:28;6.53;;;3.60;;
10851;SDS011;5479;52.046;6.314;2023-09-18T08:26:56;7.47;;;3.88;;
10851;SDS011;5479;52.046;6.314;2023-09-18T08:29:25;6.93;;;3.63;;
10851;SDS011;5479;52.046;6.314;2023-09-18T08:31:53;6.10;;;3.63;;
10851;SDS011;5479;52.046;6.314;2023-09-18T08:34:29;9.48;;;3.60;;
10851;SDS011;5479;52.046;6.314;2023-09-18T08:37:14;7.18;;;3.28;;
10851;SDS011;5479;52.046;6.314;2023-09-18T08:40:14;5.90;;;3.30;;
10851;SDS011;5479;52.046;6.314;2023-09-18T08:42:47;5.35;;;2.85;;
10851;SDS011;5479;52.046;6.314;2023-09-18T08:45:25;5.53;;;2.95;;
10851;SDS011;5479;52.046;6.314;2023-09-18T08:48:01;4.50;;;2.60;;
10851;SDS011;5479;52.046;6.314;2023-09-18T08:50:29;5.88;;;3.00;;
10851;SDS011;5479;52.046;6.314;2023-09-18T08:52:59;6.03;;;2.85;;
10851;SDS011;5479;52.046;6.314;2023-09-18T08:55:27;5.47;;;2.38;;
10851;SDS011;5479;52.046;6.314;2023-09-18T08:57:56;4.97;;;2.50;;
10851;SDS011;5479;52.046;6.314;2023-09-18T09:00:29;6.45;;;2.72;;
10851;SDS011;5479;52.046;6.314;2023-09-18T09:02:57;5.15;;;2.58;;
10851;SDS011;5479;52.046;6.314;2023-09-18T09:05:25;4.03;;;2.60;;
10851;SDS011;5479;52.046;6.314;2023-09-18T09:07:53;5.10;;;2.38;;
10851;SDS011;5479;52.046;6.314;2023-09-18T09:10:21;5.90;;;2.70;;
10851;SDS011;5479;52.046;6.314;2023-09-18T09:12:52;4.75;;;2.75;;
10851;SDS011;5479;52.046;6.314;2023-09-18T09:15:22;4.28;;;2.35;;
10851;SDS011;5479;52.046;6.314;2023-09-18T09:18:01;3.60;;;2.30;;
10851;SDS011;5479;52.046;6.314;2023-09-18T09:20:32;7.85;;;2.35;;
10851;SDS011;5479;52.046;6.314;2023-09-18T09:23:02;6.03;;;2.38;;
10851;SDS011;5479;52.046;6.314;2023-09-18T09:25:31;3.97;;;2.25;;
10851;SDS011;5479;52.046;6.314;2023-09-18T09:28:01;6.63;;;2.60;;
10851;SDS011;5479;52.046;6.314;2023-09-18T09:30:31;5.78;;;2.40;;
10851;SDS011;5479;52.046;6.314;2023-09-18T09:33:02;3.75;;;2.38;;
10851;SDS011;5479;52.046;6.314;2023-09-18T09:35:37;3.65;;;2.20;;
10851;SDS011;5479;52.046;6.314;2023-09-18T09:38:09;4.05;;;2.30;;
10851;SDS011;5479;52.046;6.314;2023-09-18T09:40:39;4.95;;;2.40;;
10851;SDS011;5479;52.046;6.314;2023-09-18T09:43:09;4.47;;;2.30;;
10851;SDS011;5479;52.046;6.314;2023-09-18T09:45:40;5.43;;;2.55;;
10851;SDS011;5479;52.046;6.314;2023-09-18T09:48:10;4.05;;;2.30;;
10851;SDS011;5479;52.046;6.314;2023-09-18T09:50:43;4.97;;;2.60;;
10851;SDS011;5479;52.046;6.314;2023-09-18T09:53:13;4.22;;;2.40;;
10851;SDS011;5479;52.046;6.314;2023-09-18T09:55:41;7.32;;;2.40;;
10851;SDS011;5479;52.046;6.314;2023-09-18T09:58:12;4.85;;;2.30;;
10851;SDS011;5479;52.046;6.314;2023-09-18T10:00:42;5.03;;;2.22;;
10851;SDS011;5479;52.046;6.314;2023-09-18T10:03:15;5.03;;;2.20;;
10851;SDS011;5479;52.046;6.314;2023-09-18T10:05:45;4.65;;;2.67;;
10851;SDS011;5479;52.046;6.314;2023-09-18T10:08:17;5.10;;;2.33;;
10851;SDS011;5479;52.046;6.314;2023-09-18T10:10:47;4.80;;;2.30;;
10851;SDS011;5479;52.046;6.314;2023-09-18T10:13:17;4.80;;;2.25;;
10851;SDS011;5479;52.046;6.314;2023-09-18T10:15:48;6.18;;;2.47;;
10851;SDS011;5479;52.046;6.314;2023-09-18T10:18:22;4.97;;;2.47;;
10851;SDS011;5479;52.046;6.314;2023-09-18T10:20:56;6.10;;;2.50;;
10851;SDS011;5479;52.046;6.314;2023-09-18T10:23:35;3.22;;;2.10;;
10851;SDS011;5479;52.046;6.314;2023-09-18T10:26:13;5.30;;;2.13;;
10851;SDS011;5479;52.046;6.314;2023-09-18T10:28:51;4.72;;;2.25;;
10851;SDS011;5479;52.046;6.314;2023-09-18T10:31:25;5.20;;;2.10;;
10851;SDS011;5479;52.046;6.314;2023-09-18T10:33:56;4.60;;;2.30;;
10851;SDS011;5479;52.046;6.314;2023-09-18T10:36:25;6.28;;;2.30;;
10851;SDS011;5479;52.046;6.314;2023-09-18T10:38:55;4.25;;;2.20;;
10851;SDS011;5479;52.046;6.314;2023-09-18T10:41:26;4.57;;;2.08;;
10851;SDS011;5479;52.046;6.314;2023-09-18T10:43:54;4.22;;;2.17;;
10851;SDS011;5479;52.046;6.314;2023-09-18T10:46:24;4.72;;;2.10;;
10851;SDS011;5479;52.046;6.314;2023-09-18T10:48:55;5.05;;;2.20;;
10851;SDS011;5479;52.046;6.314;2023-09-18T10:51:24;4.78;;;2.33;;
10851;SDS011;5479;52.046;6.314;2023-09-18T10:53:53;4.70;;;2.20;;
10851;SDS011;5479;52.046;6.314;2023-09-18T10:56:24;7.95;;;2.67;;
10851;SDS011;5479;52.046;6.314;2023-09-18T10:58:56;6.82;;;2.80;;
10851;SDS011;5479;52.046;6.314;2023-09-18T11:01:27;6.22;;;2.63;;
10851;SDS011;5479;52.046;6.314;2023-09-18T11:03:59;4.50;;;2.75;;
10851;SDS011;5479;52.046;6.314;2023-09-18T11:06:28;7.20;;;2.80;;
10851;SDS011;5479;52.046;6.314;2023-09-18T11:09:00;8.75;;;3.33;;
10851;SDS011;5479;52.046;6.314;2023-09-18T11:11:30;7.13;;;3.05;;
10851;SDS011;5479;52.046;6.314;2023-09-18T11:14:01;7.30;;;3.28;;
10851;SDS011;5479;52.046;6.314;2023-09-18T11:16:34;6.50;;;3.20;;
10851;SDS011;5479;52.046;6.314;2023-09-18T11:19:07;6.78;;;2.90;;
10851;SDS011;5479;52.046;6.314;2023-09-18T11:21:37;8.10;;;3.33;;
10851;SDS011;5479;52.046;6.314;2023-09-18T11:24:06;6.32;;;2.88;;
10851;SDS011;5479;52.046;6.314;2023-09-18T11:26:39;6.07;;;2.67;;
10851;SDS011;5479;52.046;6.314;2023-09-18T11:29:08;6.10;;;3.00;;
10851;SDS011;5479;52.046;6.314;2023-09-18T11:31:43;6.18;;;3.28;;
10851;SDS011;5479;52.046;6.314;2023-09-18T11:34:19;7.10;;;3.03;;
10851;SDS011;5479;52.046;6.314;2023-09-18T11:36:48;5.65;;;3.30;;
10851;SDS011;5479;52.046;6.314;2023-09-18T11:39:32;5.82;;;2.78;;
10851;SDS011;5479;52.046;6.314;2023-09-18T11:42:09;6.53;;;3.15;;
10851;SDS011;5479;52.046;6.314;2023-09-18T11:44:40;5.53;;;2.78;;
10851;SDS011;5479;52.046;6.314;2023-09-18T11:47:09;6.10;;;3.15;;
10851;SDS011;5479;52.046;6.314;2023-09-18T11:49:49;6.85;;;2.95;;
10851;SDS011;5479;52.046;6.314;2023-09-18T11:52:21;9.30;;;2.85;;
10851;SDS011;5479;52.046;6.314;2023-09-18T11:54:51;5.70;;;2.92;;
10851;SDS011;5479;52.046;6.314;2023-09-18T11:57:19;4.68;;;2.85;;
10851;SDS011;5479;52.046;6.314;2023-09-18T11:59:48;4.72;;;2.88;;
10851;SDS011;5479;52.046;6.314;2023-09-18T12:02:25;5.97;;;2.67;;
10851;SDS011;5479;52.046;6.314;2023-09-18T12:04:55;10.23;;;3.10;;
10851;SDS011;5479;52.046;6.314;2023-09-18T12:07:23;5.18;;;2.78;;
10851;SDS011;5479;52.046;6.314;2023-09-18T12:09:52;7.05;;;3.10;;
10851;SDS011;5479;52.046;6.314;2023-09-18T12:12:21;6.97;;;3.40;;
10851;SDS011;5479;52.046;6.314;2023-09-18T12:14:50;4.95;;;2.78;;
10851;SDS011;5479;52.046;6.314;2023-09-18T12:17:20;5.50;;;2.92;;
10851;SDS011;5479;52.046;6.314;2023-09-18T12:19:51;5.50;;;3.17;;
10851;SDS011;5479;52.046;6.314;2023-09-18T12:22:26;9.82;;;3.35;;
10851;SDS011;5479;52.046;6.314;2023-09-18T12:25:07;7.22;;;3.22;;
10851;SDS011;5479;52.046;6.314;2023-09-18T12:27:36;6.70;;;3.05;;
10851;SDS011;5479;52.046;6.314;2023-09-18T12:30:06;7.15;;;3.10;;
10851;SDS011;5479;52.046;6.314;2023-09-18T12:32:35;7.00;;;3.78;;
10851;SDS011;5479;52.046;6.314;2023-09-18T12:35:05;9.80;;;3.67;;
10851;SDS011;5479;52.046;6.314;2023-09-18T12:37:35;7.75;;;4.25;;
10851;SDS011;5479;52.046;6.314;2023-09-18T12:40:12;7.68;;;4.57;;
10851;SDS011;5479;52.046;6.314;2023-09-18T12:42:49;8.35;;;4.20;;
10851;SDS011;5479;52.046;6.314;2023-09-18T12:45:20;6.72;;;3.90;;
10851;SDS011;5479;52.046;6.314;2023-09-18T12:47:49;6.53;;;4.20;;
10851;SDS011;5479;52.046;6.314;2023-09-18T12:50:18;8.82;;;4.10;;
10851;SDS011;5479;52.046;6.314;2023-09-18T12:52:47;7.28;;;4.18;;
10851;SDS011;5479;52.046;6.314;2023-09-18T12:55:22;6.68;;;4.30;;
10851;SDS011;5479;52.046;6.314;2023-09-18T12:57:52;9.05;;;3.95;;
10851;SDS011;5479;52.046;6.314;2023-09-18T13:00:21;8.10;;;4.03;;
10851;SDS011;5479;52.046;6.314;2023-09-18T13:02:53;6.93;;;3.55;;
10851;SDS011;5479;52.046;6.314;2023-09-18T13:05:22;7.43;;;3.45;;
10851;SDS011;5479;52.046;6.314;2023-09-18T13:07:53;7.57;;;3.78;;
10851;SDS011;5479;52.046;6.314;2023-09-18T13:10:22;8.23;;;3.63;;
10851;SDS011;5479;52.046;6.314;2023-09-18T13:12:50;7.47;;;3.80;;
10851;SDS011;5479;52.046;6.314;2023-09-18T13:15:27;5.68;;;3.00;;
10851;SDS011;5479;52.046;6.314;2023-09-18T13:17:58;5.85;;;3.30;;
10851;SDS011;5479;52.046;6.314;2023-09-18T13:20:27;6.10;;;3.25;;
10851;SDS011;5479;52.046;6.314;2023-09-18T13:22:58;7.88;;;3.03;;
10851;SDS011;5479;52.046;6.314;2023-09-18T13:25:30;5.15;;;3.03;;
10851;SDS011;5479;52.046;6.314;2023-09-18T13:28:01;6.40;;;3.28;;
10851;SDS011;5479;52.046;6.314;2023-09-18T13:30:30;6.70;;;3.17;;
10851;SDS011;5479;52.046;6.314;2023-09-18T13:33:03;4.97;;;2.95;;
10851;SDS011;5479;52.046;6.314;2023-09-18T13:35:33;6.40;;;3.13;;
10851;SDS011;5479;52.046;6.314;2023-09-18T13:38:03;6.43;;;3.17;;
10851;SDS011;5479;52.046;6.314;2023-09-18T13:40:34;5.93;;;2.70;;
10851;SDS011;5479;52.046;6.314;2023-09-18T13:43:03;6.47;;;3.40;;
10851;SDS011;5479;52.046;6.314;2023-09-18T13:45:32;5.13;;;3.00;;
10851;SDS011;5479;52.046;6.314;2023-09-18T13:48:02;5.55;;;2.75;;
10851;SDS011;5479;52.046;6.314;2023-09-18T13:50:31;5.95;;;3.13;;
10851;SDS011;5479;52.046;6.314;2023-09-18T13:52:59;5.13;;;3.00;;
10851;SDS011;5479;52.046;6.314;2023-09-18T13:55:28;6.32;;;3.13;;
10851;SDS011;5479;52.046;6.314;2023-09-18T13:57:56;6.07;;;3.20;;
10851;SDS011;5479;52.046;6.314;2023-09-18T14:00:24;4.57;;;2.42;;
10851;SDS011;5479;52.046;6.314;2023-09-18T14:02:52;5.80;;;3.20;;
10851;SDS011;5479;52.046;6.314;2023-09-18T14:05:20;4.97;;;2.90;;
10851;SDS011;5479;52.046;6.314;2023-09-18T14:07:48;4.63;;;2.80;;
10851;SDS011;5479;52.046;6.314;2023-09-18T14:10:17;5.95;;;3.00;;
10851;SDS011;5479;52.046;6.314;2023-09-18T14:12:48;5.10;;;2.88;;
10851;SDS011;5479;52.046;6.314;2023-09-18T14:15:17;4.45;;;2.88;;
10851;SDS011;5479;52.046;6.314;2023-09-18T14:17:46;6.75;;;3.28;;
10851;SDS011;5479;52.046;6.314;2023-09-18T14:20:14;6.88;;;3.10;;
10851;SDS011;5479;52.046;6.314;2023-09-18T14:22:45;7.80;;;3.20;;
10851;SDS011;5479;52.046;6.314;2023-09-18T14:25:25;5.63;;;3.03;;
10851;SDS011;5479;52.046;6.314;2023-09-18T14:27:55;4.80;;;2.80;;
10851;SDS011;5479;52.046;6.314;2023-09-18T14:30:24;5.28;;;2.78;;
10851;SDS011;5479;52.046;6.314;2023-09-18T14:32:57;6.78;;;3.78;;
10851;SDS011;5479;52.046;6.314;2023-09-18T14:35:27;6.07;;;2.85;;
10851;SDS011;5479;52.046;6.314;2023-09-18T14:37:55;5.82;;;3.10;;
10851;SDS011;5479;52.046;6.314;2023-09-18T14:40:24;6.25;;;2.90;;
10851;SDS011;5479;52.046;6.314;2023-09-18T14:42:52;6.03;;;2.80;;
10851;SDS011;5479;52.046;6.314;2023-09-18T14:45:22;5.60;;;2.80;;
10851;SDS011;5479;52.046;6.314;2023-09-18T14:47:50;5.90;;;3.00;;
10851;SDS011;5479;52.046;6.314;2023-09-18T14:50:18;4.75;;;2.63;;
10851;SDS011;5479;52.046;6.314;2023-09-18T14:52:48;5.22;;;2.78;;
10851;SDS011;5479;52.046;6.314;2023-09-18T14:55:16;6.18;;;2.63;;
10851;SDS011;5479;52.046;6.314;2023-09-18T14:57:44;4.40;;;2.60;;
10851;SDS011;5479;52.046;6.314;2023-09-18T15:00:12;5.07;;;2.42;;
10851;SDS011;5479;52.046;6.314;2023-09-18T15:02:42;4.43;;;2.67;;
10851;SDS011;5479;52.046;6.314;2023-09-18T15:05:10;4.30;;;2.50;;
10851;SDS011;5479;52.046;6.314;2023-09-18T15:07:41;6.90;;;2.60;;